Flight Track Log - Related Links

Times and Time Zones

All times are in EDT time to prevent confusion due to time zone crossing. See the N4426 flight status page for this flight to view local times or setup timezone preferences in your user account.

Time Position Orientation Groundspeed Altitude Reporting Facility
EDT Latitude Longitude Course Direction KTS MPH feet Rate Location/Type
Tue 10:11:16 AM 25.9147 -80.2972 302° West 163 188 700  Level Miami Center
Tue 10:11:35 AM 25.9242 -80.3142 302° West 220 253 1,600 2,229 Climbing Miami Center
Tue 10:11:51 AM 25.9286 -80.3225 301° West 209 241 2,000 2,557 Climbing Miami Center
Tue 10:12:36 AM 25.9694 -80.3617 319° Northwest 273 314 4,200 2,226 Climbing Miami Center
Tue 10:12:53 AM 25.9792 -80.3547 33° Northeast 271 312 4,300 2,557 Climbing Miami Center
Tue 10:13:37 AM 25.9744 -80.2808 94° East 277 319 6,800 2,951 Climbing Miami Center
Tue 10:13:54 AM 25.9697 -80.2714 119° Southeast 284 327 7,300 3,246 Climbing Miami Center
Tue 10:14:38 AM 25.9481 -80.2003 109° East 291 335 10,100 3,097 Climbing Miami Center
Tue 10:14:56 AM 25.9497 -80.1861 83° East 293 337 10,500 2,734 Climbing Miami Center
Tue 10:15:57 AM 25.9531 -80.0731 88° East 312 359 13,700 2,537 Climbing Miami Center
Tue 10:16:59 AM 25.9572 -79.9667 87° East 342 394 15,700 1,935 Climbing Miami Center
Tue 10:18:01 AM 25.9614 -79.8544 88° East 365 420 17,700 1,610 Climbing Miami Center
Tue 10:19:02 AM 25.9650 -79.7383 88° East 376 433 19,000 634 Climbing Miami Center
Tue 10:20:04 AM 25.9586 -79.6161 93° East 400 460 19,000  Level Miami Center
Tue 10:21:06 AM 25.9161 -79.5011 112° Southeast 403 464 19,000  Level Miami Center
Tue 10:22:07 AM 25.8633 -79.3906 118° Southeast 404 465 19,000  Level Miami Center
Tue 10:23:09 AM 25.8128 -79.2781 117° Southeast 405 466 19,000  Level Miami Center
Tue 10:24:11 AM 25.7500 -79.1444 118° Southeast 407 468 19,000  Level Miami Center
Tue 10:25:12 AM 25.6989 -79.0303 116° Southeast 410 472 19,000  Level Miami Center
Tue 10:26:14 AM 25.6436 -78.9156 118° Southeast 410 472 19,000 -242 Level Miami Center
Tue 10:27:16 AM 25.5925 -78.8039 117° Southeast 408 470 18,500 -1,016 Descending Miami Center
Tue 10:28:18 AM 25.5358 -78.6844 118° Southeast 402 463 16,900 -1,512 Descending Miami Center
Tue 10:29:19 AM 25.4850 -78.5781 118° Southeast 394 453 15,400 -1,512 Descending Miami Center
Tue 10:30:21 AM 25.4372 -78.4728 117° Southeast 385 443 13,800 -1,161 Descending Miami Center
Tue 10:31:23 AM 25.3917 -78.3575 114° Southeast 369 425 13,000 -387 Descending Miami Center
Tue 10:32:25 AM 25.3661 -78.2589 106° East 336 387 13,000  Level Miami Center
Tue 10:33:26 AM 25.3397 -78.1683 108° East 309 356 13,000  Level Miami Center
Tue 10:34:28 AM 25.3150 -78.0753 106° East 315 362 13,000 -339 Level Miami Center
Tue 10:35:30 AM 25.2872 -77.9750 107° East 311 358 12,300 -1,306 Descending Miami Center
Tue 10:36:32 AM 25.2619 -77.8858 107° East 307 353 10,300 -2,146 Descending Miami Center
Tue 10:37:33 AM 25.2375 -77.7975 107° East 304 350 7,900 -2,361 Descending Miami Center

Login

Don't have an account? Register now (free) for customized features, flight alerts, and more!